Hillsdale, MI

7:36 AM EST on November 19, 2019 (GMT -0500)
Hillsdale Municipal

Weather History for KJYM - September, 2019

Change the Weather History Date:

Sunday, September 29, 2019

  Actual Average Record
Temperature  
Mean Temperature 57 °F -  
Max Temperature 61 °F 66 °F 93 °F (1953)
Min Temperature 53 °F 43 °F 26 °F (1951)
Degree Days  
Heating Degree Days 8    
Growing Degree Days 7 (Base 50)    
Moisture  
Dew Point 57 °F    
Average Humidity 95    
Maximum Humidity 97    
Minimum Humidity 91    
Precipitation  
Precipitation 0.55 in - - ()
Sea Level Pressure  
Sea Level Pressure 30.24 in    
Wind  
Wind Speed 8 mph ()    
Max Wind Speed 16 mph    
Max Gust Speed 21 mph    
Visibility 7.2 miles    
Events Rain    
Averages and records for this station are not official NWS values.
T = Trace of Precipitation, MM = Missing Value Source: Averaged Metar Reports

Daily Weather History Graph

Daily Weather History Graph

Search for Another Location

Airport or City:

Astronomy

Sep. 29, 2019 Rise Set
Actual Time 7:32 AM EDT 7:23 PM EDT
Civil Twilight 7:05 AM EDT 7:51 PM EDT
Nautical Twilight 6:32 AM EDT 8:23 PM EDT
Astronomical Twilight 5:59 AM EDT 8:56 PM EDT
Moon 8:22 AM EDT (9/29) 8:23 PM EDT (9/29)
Length of Visible Light 12h 46m
Length of Day
11h 50m
New Moon, 1% of the Moon is Illuminated
Sep 29
New Moon
Oct 5
First Quarter
Oct 13
Full
Oct 21
Last Quarter
Oct 27
New

Hourly Weather History & Observations

Time (EDT) Temp. Dew Point Humidity Pressure Visibility Wind Dir Wind Speed Gust Speed Precip Events Conditions
12:18 AM 56.3 °F 55.4 °F 97% 30.27 in 10.0 mi ENE 9.2 mph - N/A   Clear
12:36 AM 56.3 °F 55.4 °F 97% 30.27 in 10.0 mi East 5.8 mph - N/A   Scattered Clouds
12:55 AM 56.5 °F 55.2 °F 96% 30.27 in 10.0 mi East 6.9 mph - N/A   Scattered Clouds
12:56 AM 56.3 °F 55.2 °F 96% 30.27 in 10.0 mi East 6.9 mph - N/A   Scattered Clouds
1:15 AM 56.3 °F 54.7 °F 94% 30.26 in 10.0 mi ENE 5.8 mph - N/A   Clear
1:39 AM 55.9 °F 54.5 °F 95% 30.27 in 10.0 mi East 4.6 mph - N/A   Clear
1:57 AM 55.8 °F 54.5 °F 96% 30.27 in 10.0 mi East 4.6 mph - N/A   Scattered Clouds
2:15 AM 56.5 °F 55.0 °F 95% 30.28 in 10.0 mi East 8.1 mph - N/A   Mostly Cloudy
2:16 AM 56.5 °F 55.0 °F 95% 30.28 in 10.0 mi East 8.1 mph - N/A   Mostly Cloudy
2:35 AM 56.7 °F 55.2 °F 95% 30.28 in 10.0 mi East 9.2 mph - N/A   Overcast
2:36 AM 56.7 °F 55.2 °F 95% 30.28 in 10.0 mi East 8.1 mph - N/A   Overcast
2:55 AM 56.7 °F 55.2 °F 95% 30.27 in 5.0 mi East 6.9 mph - N/A   Overcast
3:18 AM 56.1 °F 54.0 °F 92% 30.27 in 10.0 mi East 6.9 mph - N/A   Mostly Cloudy
3:36 AM 55.0 °F 52.9 °F 92% 30.26 in 10.0 mi East 6.9 mph - N/A   Scattered Clouds
3:55 AM 54.7 °F 52.3 °F 92% 30.27 in 10.0 mi East 5.8 mph - N/A   Clear
3:56 AM 54.7 °F 52.3 °F 92% 30.27 in 10.0 mi East 5.8 mph - N/A   Clear
4:15 AM 54.3 °F 52.0 °F 92% 30.25 in 10.0 mi East 8.1 mph - N/A   Clear
4:39 AM 54.0 °F 52.0 °F 93% 30.25 in 10.0 mi ENE 9.2 mph - N/A   Clear
4:57 AM 53.8 °F 51.8 °F 93% 30.27 in 10.0 mi ESE 4.6 mph - N/A   Scattered Clouds
5:15 AM 54.0 °F 52.0 °F 93% 30.27 in 10.0 mi East 6.9 mph - N/A   Mostly Cloudy
5:16 AM 54.0 °F 52.0 °F 93% 30.27 in 10.0 mi East 5.8 mph - N/A   Mostly Cloudy
5:35 AM 54.1 °F 52.3 °F 94% 30.27 in 10.0 mi ENE 9.2 mph - N/A   Overcast
5:55 AM 54.5 °F 52.3 °F 92% 30.27 in 10.0 mi East 8.1 mph - N/A   Overcast
6:18 AM 54.9 °F 52.7 °F 92% 30.27 in 10.0 mi East 8.1 mph - N/A   Overcast
6:36 AM 54.9 °F 52.9 °F 93% 30.27 in 10.0 mi East 13.8 mph - N/A   Overcast
6:55 AM 54.9 °F 53.1 °F 94% 30.26 in 10.0 mi East 10.4 mph - N/A   Overcast
7:15 AM 55.2 °F 53.2 °F 93% 30.27 in 10.0 mi East 10.4 mph 17.3 mph N/A   Overcast
7:39 AM 55.4 °F 53.2 °F 92% 30.26 in 10.0 mi East 11.5 mph - N/A   Overcast
7:57 AM 55.4 °F 53.1 °F 92% 30.27 in 10.0 mi East 8.1 mph - N/A   Overcast
8:16 AM 55.6 °F 53.1 °F 91% 30.28 in 10.0 mi East 9.2 mph - N/A   Overcast
8:35 AM 55.6 °F 53.1 °F 91% 30.28 in 10.0 mi East 8.1 mph - N/A   Overcast
9:18 AM 56.1 °F 53.8 °F 92% 30.29 in 10.0 mi East 10.4 mph - N/A   Overcast
9:35 AM 56.5 °F 54.5 °F 93% 30.29 in 10.0 mi East 6.9 mph - N/A Rain Light Rain
9:55 AM 56.5 °F 54.9 °F 94% 30.28 in 5.0 mi East 9.2 mph - N/A Rain Light Rain
10:15 AM 56.7 °F 55.4 °F 96% 30.28 in 4.0 mi East 9.2 mph - 0.01 in Rain Light Rain
10:39 AM 57.2 °F 55.9 °F 96% 30.29 in 3.0 mi East 6.9 mph - 0.02 in Rain Light Rain
10:57 AM 57.4 °F 56.3 °F 96% 30.28 in 4.0 mi East 9.2 mph - 0.04 in Rain Light Rain
11:15 AM 57.6 °F 56.5 °F 96% 30.29 in 4.0 mi East 8.1 mph - 0.03 in Rain Rain
11:16 AM 57.7 °F 56.5 °F 96% 30.29 in 4.0 mi East 10.4 mph - 0.03 in Rain Rain
11:35 AM 58.1 °F 57.0 °F 96% 30.30 in 5.0 mi ESE 5.8 mph - 0.06 in Rain Rain
11:55 AM 58.5 °F 57.2 °F 96% 30.26 in 2.5 mi ENE 10.4 mph - 0.20 in Rain Light Rain
12:18 PM 59.5 °F 58.3 °F 96% 30.25 in 7.0 mi ENE 12.7 mph - 0.01 in Rain Light Rain
12:36 PM 59.9 °F 58.6 °F 96% 30.26 in 10.0 mi East 10.4 mph - 0.02 in Rain Light Rain
12:55 PM 60.1 °F 59.0 °F 96% 30.25 in 10.0 mi East 12.7 mph - 0.02 in Rain Light Rain
1:15 PM 60.3 °F 59.0 °F 96% 30.23 in 7.0 mi East 11.5 mph 17.3 mph N/A Rain Light Rain
1:39 PM 60.3 °F 59.0 °F 96% 30.25 in 2.0 mi East 10.4 mph - 0.11 in Rain Heavy Rain
1:57 PM 60.8 °F 59.5 °F 96% 30.23 in 4.0 mi East 12.7 mph 20.7 mph 0.16 in Rain Light Rain
2:15 PM 61.2 °F 59.9 °F 96% 30.23 in 10.0 mi East 11.5 mph 16.1 mph N/A   Overcast
2:16 PM 61.2 °F 59.9 °F 96% 30.23 in 10.0 mi East 9.2 mph 16.1 mph N/A   Overcast
2:35 PM 60.8 °F 59.4 °F 95% 30.22 in 10.0 mi East 10.4 mph 16.1 mph N/A   Overcast
2:55 PM 60.8 °F 59.4 °F 95% 30.22 in 10.0 mi ESE 9.2 mph 16.1 mph 0.01 in Rain Light Rain
3:18 PM 61.0 °F 59.7 °F 96% 30.22 in 5.0 mi East 13.8 mph 18.4 mph N/A Rain Light Rain
3:35 PM 61.2 °F 59.9 °F 96% 30.22 in 7.0 mi East 8.1 mph - 0.01 in Rain Light Rain
3:55 PM 61.2 °F 59.9 °F 96% 30.21 in 3.0 mi East 10.4 mph - 0.09 in Rain Heavy Rain
3:56 PM 61.2 °F 59.9 °F 96% 30.21 in 2.5 mi East 8.1 mph - 0.10 in Rain Heavy Rain
4:15 PM 61.3 °F 60.1 °F 96% 30.20 in 5.0 mi East 10.4 mph 16.1 mph 0.01 in Rain Light Rain
4:39 PM 61.7 °F 60.3 °F 95% 30.19 in 10.0 mi East 12.7 mph 16.1 mph 0.01 in Rain Light Rain
4:57 PM 61.7 °F 60.1 °F 94% 30.19 in 10.0 mi East 16.1 mph - 0.01 in   Overcast
5:15 PM 61.9 °F 60.1 °F 94% 30.19 in 10.0 mi East 11.5 mph 18.4 mph N/A   Overcast
5:16 PM 61.9 °F 60.1 °F 94% 30.19 in 10.0 mi East 12.7 mph 18.4 mph N/A   Overcast
5:35 PM 61.7 °F 59.9 °F 94% 30.19 in 10.0 mi East 12.7 mph 17.3 mph N/A   Overcast
5:55 PM 61.7 °F 60.1 °F 94% 30.20 in 5.0 mi ESE 5.8 mph 18.4 mph N/A   Overcast
6:18 PM 61.5 °F 59.9 °F 94% 30.20 in 5.0 mi ESE 9.2 mph - N/A   Overcast
6:36 PM 61.3 °F 59.9 °F 95% 30.20 in 4.0 mi ESE 6.9 mph - N/A Rain Rain
6:55 PM 61.2 °F 59.7 °F 95% 30.20 in 3.0 mi East 5.8 mph 16.1 mph N/A Rain Light Rain
6:56 PM 61.2 °F 59.7 °F 95% 30.20 in 3.0 mi East 5.8 mph 16.1 mph N/A Rain Light Rain
7:15 PM 60.8 °F 59.4 °F 95% 30.20 in 3.0 mi East 6.9 mph - N/A Rain Light Rain
7:39 PM 60.8 °F 59.4 °F 95% 30.20 in 3.0 mi East 6.9 mph - N/A   Overcast
7:57 PM 60.6 °F 59.4 °F 96% 30.20 in 3.0 mi East 8.1 mph - 0.01 in   Overcast
8:15 PM 60.3 °F 59.2 °F 96% 30.19 in 4.0 mi East 4.6 mph - N/A   Overcast
8:16 PM 60.3 °F 59.2 °F 96% 30.19 in 4.0 mi ESE 4.6 mph - N/A   Overcast
8:35 PM 60.3 °F 59.2 °F 96% 30.20 in 5.0 mi East 8.1 mph - N/A   Overcast
8:55 PM 60.3 °F 59.2 °F 96% 30.20 in 5.0 mi East 6.9 mph - N/A   Overcast
9:18 PM 60.3 °F 59.2 °F 96% 30.20 in 4.0 mi East 8.1 mph - N/A   Overcast
9:35 PM 60.1 °F 59.0 °F 96% 30.19 in 4.0 mi East 8.1 mph - N/A   Overcast
9:55 PM 60.3 °F 59.4 °F 97% 30.19 in 4.0 mi ESE 5.8 mph - N/A   Overcast
10:15 PM 60.3 °F 59.2 °F 96% 30.19 in 4.0 mi East 6.9 mph - N/A   Overcast
10:39 PM 60.1 °F 59.2 °F 97% 30.19 in 3.0 mi East 6.9 mph - N/A   Overcast
10:57 PM 60.1 °F 59.2 °F 97% 30.18 in 4.0 mi East 9.2 mph - N/A   Overcast
11:15 PM 60.1 °F 59.2 °F 97% 30.19 in 4.0 mi East 4.6 mph - N/A   Overcast
11:16 PM 60.1 °F 59.2 °F 97% 30.19 in 4.0 mi East 4.6 mph - N/A   Overcast
11:35 PM 60.4 °F 59.5 °F 97% 30.19 in 4.0 mi ESE 8.1 mph - N/A   Overcast
11:55 PM 60.3 °F 59.4 °F 97% 30.18 in 4.0 mi East 8.1 mph - N/A   Overcast